Time;durP1;ratioP1;P1;durP2;ratioP2;P2;SDS_P1;SDS_P2;PMS_P1;PMS_P2;Temp;Humidity;BMP_temperature;BMP_pressure;BME280_temperature;BME280_humidity;BME280_pressure;Samples;Min_cycle;Max_cycle;Signal;HPM_P1;HPM_P2
2022/10/29 00:01:19;;;;;;;11.82;3.70;;;17.60;99.90;;;;;;5091170;28;20563;-71
2022/10/29 00:03:47;;;;;;;13.30;4.68;;;17.70;99.90;;;;;;5091780;28;20206;-72
2022/10/29 00:06:12;;;;;;;13.02;4.82;;;17.70;99.90;;;;;;5090636;28;20313;-71
2022/10/29 00:08:38;;;;;;;11.98;4.68;;;17.80;99.90;;;;;;5091488;28;20720;-71
2022/10/29 00:11:08;;;;;;;11.38;4.68;;;17.80;99.90;;;;;;5090405;28;20684;-71
2022/10/29 00:13:35;;;;;;;14.57;4.65;;;17.80;99.90;;;;;;5092011;28;20208;-70
2022/10/29 00:16:08;;;;;;;14.32;4.35;;;17.80;99.90;;;;;;5091144;28;20206;-70
2022/10/29 00:18:34;;;;;;;9.70;4.60;;;17.80;99.90;;;;;;5092673;28;20229;-71
2022/10/29 00:21:04;;;;;;;19.55;5.10;;;17.80;99.90;;;;;;5091257;28;20630;-70
2022/10/29 00:23:30;;;;;;;15.95;4.65;;;17.80;99.90;;;;;;5073120;28;20340;-71
2022/10/29 00:25:57;;;;;;;14.73;4.65;;;17.80;99.90;;;;;;5091485;28;20253;-72
2022/10/29 00:28:23;;;;;;;12.40;4.88;;;17.80;99.90;;;;;;5086957;28;20206;-71
2022/10/29 00:30:48;;;;;;;11.43;4.60;;;17.80;99.90;;;;;;5072377;28;20214;-72
2022/10/29 00:33:15;;;;;;;11.98;5.05;;;17.80;99.90;;;;;;5090836;28;20710;-71
2022/10/29 00:35:40;;;;;;;14.70;4.63;;;17.80;99.90;;;;;;5090242;28;20211;-71
2022/10/29 00:38:06;;;;;;;14.90;4.57;;;17.80;99.90;;;;;;5090840;28;20182;-71
2022/10/29 00:40:36;;;;;;;10.63;4.75;;;17.80;99.90;;;;;;5091261;28;20209;-71
2022/10/29 00:43:15;;;;;;;10.55;4.38;;;17.80;99.90;;;;;;5090107;28;20210;-72
2022/10/29 00:45:46;;;;;;;14.70;5.03;;;17.70;99.90;;;;;;5090763;28;20209;-72
2022/10/29 00:48:11;;;;;;;14.43;4.53;;;17.70;99.90;;;;;;5090392;28;20202;-71
2022/10/29 00:50:37;;;;;;;13.38;5.07;;;17.70;99.90;;;;;;5071977;28;20643;-72
2022/10/29 00:53:02;;;;;;;14.82;4.97;;;17.70;99.90;;;;;;5091059;28;20186;-71
2022/10/29 00:55:28;;;;;;;10.77;4.85;;;17.70;99.90;;;;;;5090516;28;20222;-71
2022/10/29 00:57:55;;;;;;;13.75;4.28;;;17.60;99.90;;;;;;5090254;28;20222;-72
2022/10/29 01:00:21;;;;;;;13.27;5.60;;;17.60;99.90;;;;;;5090293;28;20229;-71
2022/10/29 01:02:47;;;;;;;13.25;4.93;;;17.60;99.90;;;;;;5090302;28;20229;-72
2022/10/29 01:05:16;;;;;;;14.68;5.05;;;17.60;99.90;;;;;;5089900;28;20178;-71
2022/10/29 01:07:42;;;;;;;15.02;5.60;;;17.60;99.90;;;;;;5090400;28;20178;-71
2022/10/29 01:10:09;;;;;;;15.15;5.05;;;17.60;99.90;;;;;;5081588;28;20963;-71
2022/10/29 01:13:06;;;;;;;11.68;5.25;;;17.50;99.90;;;;;;5090038;28;20238;-72
2022/10/29 01:15:51;;;;;;;9.38;4.32;;;17.50;99.90;;;;;;5089831;28;20284;-72
2022/10/29 01:18:28;;;;;;;18.92;5.63;;;17.50;99.90;;;;;;5090094;28;20233;-71
2022/10/29 01:21:23;;;;;;;16.05;5.72;;;17.50;99.90;;;;;;5086462;28;20221;-72
2022/10/29 01:24:14;;;;;;;10.73;4.88;;;17.40;99.90;;;;;;5087542;28;20289;-72
2022/10/29 01:27:04;;;;;;;13.82;4.97;;;17.40;99.90;;;;;;5087673;28;20738;-71
2022/10/29 01:29:59;;;;;;;14.27;5.68;;;17.40;99.90;;;;;;5087443;28;20230;-72
2022/10/29 01:32:49;;;;;;;15.27;4.82;;;17.30;99.90;;;;;;5070386;28;20216;-71
2022/10/29 01:35:41;;;;;;;11.93;5.10;;;17.30;99.90;;;;;;5090923;28;20178;-71
2022/10/29 01:38:23;;;;;;;14.13;5.15;;;17.30;99.90;;;;;;5088178;28;20665;-71
2022/10/29 01:41:24;;;;;;;15.40;5.15;;;17.20;99.90;;;;;;5069485;28;20194;-71
2022/10/29 01:43:54;;;;;;;11.98;5.65;;;17.20;99.90;;;;;;5074390;28;20221;-71
2022/10/29 01:46:27;;;;;;;13.65;5.20;;;17.20;99.90;;;;;;5089778;28;20285;-72
2022/10/29 01:49:00;;;;;;;10.52;5.53;;;17.20;99.90;;;;;;5089515;28;20579;-69
2022/10/29 01:51:29;;;;;;;16.65;6.22;;;17.10;99.90;;;;;;5089479;28;20218;-71
2022/10/29 01:53:55;;;;;;;15.23;5.60;;;17.20;99.90;;;;;;5086704;28;20277;-71
2022/10/29 01:56:21;;;;;;;14.45;6.20;;;17.20;99.90;;;;;;5071659;28;20181;-72
2022/10/29 01:58:50;;;;;;;14.77;5.60;;;17.20;99.90;;;;;;5090094;28;20178;-71
2022/10/29 02:01:47;;;;;;;12.98;5.93;;;17.10;99.90;;;;;;5088962;28;20213;-71
2022/10/29 02:04:32;;;;;;;14.70;5.85;;;17.10;99.90;;;;;;5095251;28;20210;-71
2022/10/29 02:07:14;;;;;;;18.02;6.18;;;17.10;99.90;;;;;;5086605;28;20210;-71
2022/10/29 02:10:02;;;;;;;12.73;5.10;;;17.10;99.90;;;;;;5087189;28;20673;-72
2022/10/29 02:12:33;;;;;;;13.68;5.60;;;17.00;99.90;;;;;;5086845;28;20215;-70
2022/10/29 02:15:08;;;;;;;19.50;6.43;;;17.00;99.90;;;;;;5089493;28;20214;-71
2022/10/29 02:17:34;;;;;;;20.48;6.80;;;17.00;99.90;;;;;;5072165;28;20205;-71
2022/10/29 02:20:09;;;;;;;15.63;5.32;;;17.00;99.90;;;;;;5093337;28;20255;-71
2022/10/29 02:22:35;;;;;;;15.82;6.03;;;17.00;99.90;;;;;;5093753;28;20297;-72
2022/10/29 02:25:02;;;;;;;15.38;5.95;;;17.00;99.90;;;;;;5093093;28;20708;-71
2022/10/29 02:27:27;;;;;;;15.27;6.45;;;17.00;99.90;;;;;;5093296;28;20710;-71
2022/10/29 02:29:53;;;;;;;15.60;5.82;;;17.00;99.90;;;;;;5092453;28;20210;-70
2022/10/29 02:32:18;;;;;;;36.00;6.70;;;16.90;99.90;;;;;;5074716;28;20205;-71
2022/10/29 02:34:44;;;;;;;14.82;6.10;;;16.90;99.90;;;;;;5093548;28;20183;-71
2022/10/29 02:37:10;;;;;;;15.43;5.95;;;16.90;99.90;;;;;;5074494;28;20221;-70
2022/10/29 02:39:35;;;;;;;14.88;5.55;;;16.90;99.90;;;;;;5093064;28;20313;-72
2022/10/29 02:42:01;;;;;;;12.93;6.05;;;17.00;99.90;;;;;;5075212;28;20680;-71
2022/10/29 02:44:26;;;;;;;20.02;5.95;;;16.90;99.90;;;;;;5090154;28;20732;-71
2022/10/29 02:46:52;;;;;;;15.05;6.13;;;16.90;99.90;;;;;;5094661;28;20212;-72
2022/10/29 02:49:17;;;;;;;14.48;5.70;;;16.90;99.90;;;;;;5092514;28;20267;-70
2022/10/29 02:54:24;;;;;;;12.82;5.88;;;16.90;99.90;;;;;;5066484;28;20226;-71
2022/10/29 02:56:49;;;;;;;16.65;5.97;;;16.90;99.90;;;;;;5039062;28;20198;-70
2022/10/29 02:59:15;;;;;;;12.77;5.45;;;16.80;99.90;;;;;;5061804;28;20250;-71
2022/10/29 03:01:40;;;;;;;11.90;5.75;;;16.90;99.90;;;;;;5047741;28;20687;-71
2022/10/29 03:04:06;;;;;;;17.73;6.60;;;16.80;99.90;;;;;;5042253;28;20638;-70
2022/10/29 03:06:31;;;;;;;14.13;6.55;;;16.80;99.90;;;;;;5063473;28;20207;-71
2022/10/29 03:08:57;;;;;;;20.55;6.63;;;16.90;99.90;;;;;;5060259;28;20215;-71
2022/10/29 03:11:22;;;;;;;20.38;8.25;;;16.80;99.90;;;;;;5042305;28;20239;-71
2022/10/29 03:13:48;;;;;;;14.43;6.15;;;16.70;99.90;;;;;;5045903;28;20207;-71
2022/10/29 03:16:13;;;;;;;15.25;6.35;;;16.70;99.90;;;;;;5061225;28;20207;-70
2022/10/29 03:18:39;;;;;;;13.52;5.97;;;16.70;99.90;;;;;;5062083;28;20712;-71
2022/10/29 03:21:05;;;;;;;12.85;6.80;;;16.70;99.90;;;;;;5059564;28;20830;-70
2022/10/29 03:23:30;;;;;;;12.10;6.13;;;16.70;99.90;;;;;;5063164;28;20815;-71
2022/10/29 03:25:56;;;;;;;15.23;6.25;;;16.70;99.90;;;;;;5042780;28;20179;-71
2022/10/29 03:28:23;;;;;;;14.43;6.00;;;16.70;99.90;;;;;;5063445;28;20212;-71
2022/10/29 03:30:48;;;;;;;23.52;7.28;;;16.60;99.90;;;;;;5062694;28;20206;-70
2022/10/29 03:33:14;;;;;;;13.85;6.85;;;16.60;99.90;;;;;;5060882;28;20211;-71
2022/10/29 03:35:39;;;;;;;22.42;6.53;;;16.60;99.90;;;;;;5061840;28;20206;-71
2022/10/29 03:38:05;;;;;;;14.50;6.05;;;16.60;99.90;;;;;;5059757;28;20264;-71
2022/10/29 03:40:30;;;;;;;14.90;6.07;;;16.60;99.90;;;;;;5045048;28;20171;-72
2022/10/29 03:42:56;;;;;;;14.05;6.13;;;16.60;99.90;;;;;;5059975;28;20241;-71
2022/10/29 03:45:22;;;;;;;14.98;6.50;;;16.60;99.90;;;;;;5041584;28;20262;-71
2022/10/29 03:47:56;;;;;;;13.23;6.43;;;16.60;99.90;;;;;;5061544;28;20698;-71
2022/10/29 03:50:21;;;;;;;16.65;7.38;;;16.50;99.90;;;;;;5053354;28;20202;-71
2022/10/29 03:52:47;;;;;;;18.08;7.15;;;16.50;99.90;;;;;;5061050;28;20290;-71
2022/10/29 03:55:12;;;;;;;13.52;6.65;;;16.50;99.90;;;;;;5040632;28;20757;-71
2022/10/29 03:57:38;;;;;;;13.65;6.20;;;16.50;99.90;;;;;;5039599;28;20260;-71
2022/10/29 04:00:04;;;;;;;16.83;6.68;;;16.50;99.90;;;;;;5032973;28;20604;-71
2022/10/29 04:02:29;;;;;;;19.02;6.78;;;16.50;99.90;;;;;;5062724;28;20218;-71
2022/10/29 04:04:55;;;;;;;15.93;6.43;;;16.40;99.90;;;;;;5061687;28;20171;-71
2022/10/29 04:07:20;;;;;;;13.38;6.35;;;16.40;99.90;;;;;;5061377;28;20210;-71
2022/10/29 04:09:46;;;;;;;12.80;6.35;;;16.40;99.90;;;;;;5060683;28;20894;-71
2022/10/29 04:12:11;;;;;;;13.98;7.05;;;16.50;99.90;;;;;;5058701;28;20703;-72
2022/10/29 04:14:37;;;;;;;15.57;6.60;;;16.40;99.90;;;;;;5062887;28;20771;-70
2022/10/29 04:17:02;;;;;;;14.82;6.57;;;16.40;99.90;;;;;;5057643;28;20685;-71
2022/10/29 04:19:28;;;;;;;17.38;6.72;;;16.40;99.90;;;;;;5063012;28;20290;-70
2022/10/29 04:21:53;;;;;;;15.18;6.72;;;16.40;99.90;;;;;;5059401;28;20222;-70
2022/10/29 04:24:19;;;;;;;16.42;7.25;;;16.40;99.90;;;;;;5060785;28;20200;-71
2022/10/29 04:26:45;;;;;;;15.15;6.95;;;16.40;99.90;;;;;;5060276;28;20211;-71
2022/10/29 04:29:10;;;;;;;13.60;6.28;;;16.40;99.90;;;;;;5058329;28;20727;-71
2022/10/29 04:31:36;;;;;;;16.25;6.20;;;16.30;99.90;;;;;;5062344;28;20203;-71
2022/10/29 04:34:03;;;;;;;17.27;7.18;;;16.40;99.90;;;;;;5033593;28;20215;-70
2022/10/29 04:36:29;;;;;;;12.13;6.07;;;16.40;99.90;;;;;;5063054;28;20213;-70
2022/10/29 04:38:55;;;;;;;13.82;6.72;;;16.40;99.90;;;;;;5060165;28;20203;-71
2022/10/29 04:41:20;;;;;;;21.50;7.68;;;16.40;99.90;;;;;;5060779;28;20175;-71
2022/10/29 04:43:46;;;;;;;21.45;7.00;;;16.30;99.90;;;;;;5060709;28;20213;-71
2022/10/29 04:46:11;;;;;;;21.85;7.15;;;16.30;99.90;;;;;;5058067;28;20215;-70
2022/10/29 04:48:37;;;;;;;15.68;7.05;;;16.30;99.90;;;;;;5061583;28;20238;-70
2022/10/29 04:51:03;;;;;;;15.77;7.05;;;16.30;99.90;;;;;;5058427;28;20224;-71
2022/10/29 04:53:29;;;;;;;17.95;6.82;;;16.30;99.90;;;;;;5061885;28;20235;-70
2022/10/29 04:56:04;;;;;;;15.23;6.97;;;16.30;99.90;;;;;;5058366;28;20194;-70
2022/10/29 04:58:30;;;;;;;14.00;6.75;;;16.30;99.90;;;;;;5061069;28;20262;-70
2022/10/29 05:01:03;;;;;;;18.13;6.72;;;16.30;99.90;;;;;;5060701;28;20207;-70
2022/10/29 05:03:29;;;;;;;14.65;6.63;;;16.30;99.90;;;;;;5057201;28;20261;-70
2022/10/29 05:05:55;;;;;;;12.40;6.70;;;16.30;99.90;;;;;;5059662;28;20225;-71
2022/10/29 05:08:20;;;;;;;14.00;6.85;;;16.30;99.90;;;;;;5060683;28;20637;-70
2022/10/29 05:10:46;;;;;;;16.83;6.82;;;16.30;99.90;;;;;;5059244;28;20195;-71
2022/10/29 05:13:12;;;;;;;16.88;7.15;;;16.30;99.90;;;;;;5057669;28;20291;-70
2022/10/29 05:15:38;;;;;;;15.57;6.55;;;16.30;99.90;;;;;;5055143;28;20591;-71
2022/10/29 05:18:05;;;;;;;14.40;6.35;;;16.20;99.90;;;;;;5058678;28;20701;-71
2022/10/29 05:20:31;;;;;;;18.83;7.25;;;16.20;99.90;;;;;;5059499;28;20211;-70
2022/10/29 05:23:05;;;;;;;13.93;7.15;;;16.20;99.90;;;;;;5037087;28;20221;-70
2022/10/29 05:25:33;;;;;;;17.70;7.00;;;16.20;99.90;;;;;;5054530;28;20216;-70
2022/10/29 05:28:03;;;;;;;14.55;6.90;;;16.20;99.90;;;;;;5057367;28;20686;-71
2022/10/29 05:30:29;;;;;;;14.75;7.13;;;16.20;99.90;;;;;;5058340;28;20223;-70
2022/10/29 05:32:55;;;;;;;18.27;7.45;;;16.20;99.90;;;;;;5058915;28;20211;-70
2022/10/29 05:35:20;;;;;;;16.60;7.22;;;16.10;99.90;;;;;;5042782;28;20175;-70
2022/10/29 05:37:55;;;;;;;18.17;7.05;;;16.10;99.90;;;;;;5058889;28;20621;-70
2022/10/29 05:40:22;;;;;;;19.92;7.53;;;16.10;99.90;;;;;;5052484;28;20710;-70
2022/10/29 05:42:48;;;;;;;15.90;6.53;;;16.10;99.90;;;;;;5058522;28;20225;-70
2022/10/29 05:45:13;;;;;;;15.80;6.95;;;16.10;99.90;;;;;;5057040;28;20199;-70
2022/10/29 05:47:39;;;;;;;15.30;7.53;;;16.00;99.90;;;;;;5060569;28;20214;-71
2022/10/29 05:50:05;;;;;;;12.90;6.53;;;16.00;99.90;;;;;;5059041;28;20184;-69
2022/10/29 05:52:30;;;;;;;13.90;6.93;;;16.00;99.90;;;;;;5065457;28;20686;-71
2022/10/29 05:54:56;;;;;;;19.10;7.53;;;15.90;99.90;;;;;;5043050;28;20711;-71
2022/10/29 05:57:21;;;;;;;13.30;6.47;;;16.00;99.90;;;;;;5062086;28;20750;-70
2022/10/29 05:59:47;;;;;;;22.05;7.55;;;16.00;99.90;;;;;;5044985;28;20240;-71
2022/10/29 06:02:13;;;;;;;12.02;7.28;;;16.00;99.90;;;;;;5047445;28;20249;-70
2022/10/29 06:04:38;;;;;;;12.70;7.38;;;16.00;99.90;;;;;;5062380;28;20646;-71
2022/10/29 06:07:04;;;;;;;21.13;7.72;;;16.00;99.90;;;;;;5057560;28;20780;-71
2022/10/29 06:09:30;;;;;;;11.45;7.03;;;16.00;99.90;;;;;;5047459;28;20210;-71
2022/10/29 06:11:55;;;;;;;14.45;6.93;;;16.00;99.90;;;;;;5060736;28;20222;-70
2022/10/29 06:14:21;;;;;;;15.50;7.10;;;16.00;99.90;;;;;;5062636;28;20767;-71
2022/10/29 06:16:46;;;;;;;16.92;6.95;;;16.10;99.90;;;;;;5063864;28;20278;-71
2022/10/29 06:19:12;;;;;;;15.63;7.63;;;16.10;99.90;;;;;;5046785;28;20215;-71
2022/10/29 06:21:38;;;;;;;18.63;7.35;;;16.20;99.90;;;;;;5061507;28;20241;-71
2022/10/29 06:24:04;;;;;;;17.40;6.78;;;16.20;99.90;;;;;;5045490;28;20769;-71
2022/10/29 06:26:29;;;;;;;17.60;6.72;;;16.20;99.90;;;;;;5064559;28;20668;-71
2022/10/29 06:28:55;;;;;;;14.05;6.53;;;16.30;99.90;;;;;;5061211;28;20279;-71
2022/10/29 06:31:20;;;;;;;16.27;7.03;;;16.80;99.90;;;;;;5061881;28;20311;-71
2022/10/29 06:33:46;;;;;;;12.15;6.78;;;17.40;99.90;;;;;;5046418;28;20294;-71
2022/10/29 06:36:11;;;;;;;15.18;6.50;;;17.40;99.90;;;;;;5063310;28;20207;-71
2022/10/29 06:38:37;;;;;;;13.68;6.50;;;17.40;99.90;;;;;;5061258;28;20289;-71
2022/10/29 06:41:02;;;;;;;16.33;6.45;;;17.60;99.90;;;;;;5047650;28;20673;-70
2022/10/29 06:43:28;;;;;;;13.75;6.15;;;17.80;99.90;;;;;;5065041;28;20727;-71
2022/10/29 06:45:54;;;;;;;18.60;6.78;;;17.80;99.90;;;;;;5060480;28;20215;-71
2022/10/29 06:48:20;;;;;;;14.07;7.20;;;17.70;99.90;;;;;;5061693;28;20306;-71
2022/10/29 06:50:45;;;;;;;14.45;6.60;;;17.90;99.90;;;;;;5062694;28;20245;-71
2022/10/29 06:53:13;;;;;;;13.48;6.25;;;17.90;99.90;;;;;;5062457;28;20226;-71
2022/10/29 06:55:39;;;;;;;18.55;6.43;;;18.30;99.90;;;;;;5049725;28;20182;-71
2022/10/29 06:58:13;;;;;;;15.73;6.85;;;18.80;99.90;;;;;;5060925;28;20246;-71
2022/10/29 07:00:40;;;;;;;17.20;7.35;;;19.50;99.90;;;;;;5060877;28;20202;-70
2022/10/29 07:03:06;;;;;;;13.20;6.22;;;19.80;99.90;;;;;;5061484;28;20211;-70
2022/10/29 07:05:32;;;;;;;16.65;5.88;;;19.80;99.90;;;;;;5048931;28;20207;-71
2022/10/29 07:07:59;;;;;;;10.90;5.95;;;19.80;99.90;;;;;;5061439;28;20176;-71
2022/10/29 07:10:27;;;;;;;15.82;6.22;;;19.80;99.90;;;;;;5063254;28;20211;-70
2022/10/29 07:12:53;;;;;;;14.43;6.15;;;19.80;99.90;;;;;;5059737;28;20218;-71
2022/10/29 07:15:19;;;;;;;13.55;6.35;;;19.70;99.90;;;;;;5060497;28;20208;-71
2022/10/29 07:18:05;;;;;;;15.10;6.00;;;19.50;99.90;;;;;;5061601;28;20677;-71
2022/10/29 07:20:37;;;;;;;13.05;5.97;;;19.30;99.90;;;;;;5057952;28;20596;-71
2022/10/29 07:23:02;;;;;;;14.02;6.30;;;19.30;99.90;;;;;;5060871;28;20214;-71
2022/10/29 07:25:29;;;;;;;9.20;5.63;;;19.30;99.90;;;;;;5063573;28;20729;-71
2022/10/29 07:28:00;;;;;;;15.85;5.80;;;19.50;99.90;;;;;;5059198;28;20584;-71
2022/10/29 07:30:26;;;;;;;17.88;6.70;;;19.70;99.90;;;;;;5042136;28;20212;-71
2022/10/29 07:32:51;;;;;;;13.60;5.50;;;19.80;99.90;;;;;;5060963;28;20222;-71
2022/10/29 07:35:17;;;;;;;18.00;6.47;;;19.80;99.90;;;;;;5061990;28;20274;-72
2022/10/29 07:37:42;;;;;;;18.65;6.65;;;19.90;99.90;;;;;;5060937;28;20171;-71
2022/10/29 07:40:09;;;;;;;15.57;6.63;;;20.00;99.90;;;;;;5059622;28;20239;-71
2022/10/29 07:42:34;;;;;;;13.60;6.50;;;20.00;99.90;;;;;;5061560;28;20207;-72
2022/10/29 07:45:00;;;;;;;15.40;6.20;;;20.00;99.90;;;;;;5060032;28;20234;-72
2022/10/29 07:47:25;;;;;;;17.33;7.20;;;20.20;99.90;;;;;;5060044;28;20226;-71
2022/10/29 07:49:51;;;;;;;12.60;5.40;;;20.30;99.90;;;;;;5061557;28;20754;-71
2022/10/29 07:52:16;;;;;;;15.90;6.43;;;20.60;99.90;;;;;;5061353;28;20226;-71
2022/10/29 07:54:42;;;;;;;11.32;6.35;;;20.80;99.90;;;;;;5045896;28;20302;-71
2022/10/29 07:57:07;;;;;;;10.65;5.88;;;20.80;99.90;;;;;;5059707;28;20227;-70
2022/10/29 07:59:33;;;;;;;13.13;5.97;;;20.80;99.90;;;;;;5047768;28;20210;-71
2022/10/29 08:01:58;;;;;;;15.93;6.15;;;20.90;99.90;;;;;;5062934;28;20233;-71
2022/10/29 08:04:24;;;;;;;12.27;6.25;;;21.10;99.90;;;;;;5059675;28;20208;-72
2022/10/29 08:06:49;;;;;;;14.10;6.50;;;21.10;99.90;;;;;;5061814;28;20206;-71
2022/10/29 08:09:15;;;;;;;13.93;5.95;;;21.20;99.90;;;;;;5060541;28;20206;-71
2022/10/29 08:11:40;;;;;;;11.68;5.85;;;21.20;99.90;;;;;;5045334;28;20246;-71
2022/10/29 08:14:06;;;;;;;18.35;5.85;;;21.10;99.90;;;;;;5046770;28;20203;-70
2022/10/29 08:16:31;;;;;;;15.77;5.82;;;21.00;99.90;;;;;;5062960;28;20182;-71
2022/10/29 08:18:57;;;;;;;13.70;6.07;;;20.90;99.90;;;;;;5058687;28;20694;-71
2022/10/29 08:21:23;;;;;;;16.38;5.53;;;21.00;99.90;;;;;;5059104;28;20686;-71
2022/10/29 08:23:49;;;;;;;13.15;5.60;;;20.80;99.90;;;;;;5061185;28;20219;-72
2022/10/29 08:26:14;;;;;;;15.63;7.05;;;20.80;99.90;;;;;;5060778;28;20271;-72
2022/10/29 08:28:41;;;;;;;16.98;7.28;;;20.50;99.90;;;;;;5059444;28;20266;-72
2022/10/29 08:31:07;;;;;;;10.82;5.97;;;20.60;99.90;;;;;;5059009;28;20212;-72
2022/10/29 08:33:33;;;;;;;15.60;6.15;;;20.70;99.90;;;;;;5062046;28;20210;-72
2022/10/29 08:35:58;;;;;;;13.73;6.20;;;20.60;99.90;;;;;;5058988;28;20207;-72
2022/10/29 08:38:24;;;;;;;19.48;6.90;;;20.60;99.90;;;;;;5059270;28;20674;-72
2022/10/29 08:41:22;;;;;;;13.60;5.72;;;20.80;99.90;;;;;;5061812;28;20186;-72
2022/10/29 08:44:06;;;;;;;17.63;6.60;;;21.00;99.90;;;;;;5043926;28;20306;-72
2022/10/29 08:47:04;;;;;;;16.58;6.35;;;21.00;99.90;;;;;;5058557;28;20233;-72
2022/10/29 08:49:36;;;;;;;16.10;6.40;;;21.00;99.90;;;;;;5007865;28;20206;-72
2022/10/29 08:52:25;;;;;;;15.70;6.25;;;21.30;99.90;;;;;;5055906;28;20222;-72
2022/10/29 08:55:04;;;;;;;17.95;6.95;;;21.40;99.90;;;;;;5058268;28;20226;-72
2022/10/29 08:57:36;;;;;;;15.20;7.28;;;21.30;99.90;;;;;;5061967;28;20237;-72
2022/10/29 09:00:04;;;;;;;16.50;6.53;;;21.20;99.90;;;;;;5058179;28;20252;-72
2022/10/29 09:02:29;;;;;;;17.33;6.53;;;21.20;99.90;;;;;;5046546;28;20707;-69
2022/10/29 09:04:55;;;;;;;14.10;6.80;;;21.10;99.90;;;;;;5058507;28;20258;-72
2022/10/29 09:07:51;;;;;;;34.80;15.10;;;21.20;99.90;;;;;;5060600;28;20626;-71
2022/10/29 09:10:42;;;;;;;16.17;6.93;;;21.30;99.90;;;;;;5030580;28;20222;-71
2022/10/29 09:13:21;;;;;;;13.57;6.75;;;21.30;99.90;;;;;;5056276;28;20219;-68
2022/10/29 09:16:07;;;;;;;15.77;6.38;;;21.20;99.90;;;;;;5056208;28;20207;-72
2022/10/29 09:18:54;;;;;;;18.98;7.10;;;21.00;99.90;;;;;;5057040;28;20408;-72
2022/10/29 09:21:29;;;;;;;14.40;6.13;;;20.90;99.90;;;;;;5054070;28;20214;-72
2022/10/29 09:23:58;;;;;;;13.23;6.32;;;21.10;99.90;;;;;;5059379;28;20218;-72
2022/10/29 09:26:27;;;;;;;14.25;5.88;;;21.30;99.90;;;;;;5061139;28;20758;-72
2022/10/29 09:29:17;;;;;;;14.70;5.85;;;21.20;99.90;;;;;;5054692;28;20269;-71
2022/10/29 09:31:47;;;;;;;16.05;6.25;;;21.20;99.90;;;;;;5055569;28;20677;-73
2022/10/29 09:34:24;;;;;;;14.57;5.78;;;21.50;99.90;;;;;;5059512;28;20979;-71
2022/10/29 09:36:50;;;;;;;15.82;6.25;;;21.70;99.90;;;;;;5060235;28;20208;-72
2022/10/29 09:39:32;;;;;;;10.63;5.60;;;21.70;99.90;;;;;;5057022;28;20206;-70
2022/10/29 09:42:00;;;;;;;13.13;5.13;;;21.80;99.90;;;;;;5043841;28;20231;-70
2022/10/29 09:44:44;;;;;;;14.63;5.47;;;21.90;99.90;;;;;;5042018;28;20203;-70
2022/10/29 09:47:24;;;;;;;11.80;5.93;;;21.80;99.90;;;;;;5057574;28;20179;-70
2022/10/29 09:50:04;;;;;;;14.27;5.43;;;21.70;99.90;;;;;;5059805;28;20174;-70
2022/10/29 09:52:34;;;;;;;18.75;6.50;;;21.60;99.90;;;;;;5056394;28;20331;-69
2022/10/29 09:55:02;;;;;;;17.17;5.68;;;21.50;99.90;;;;;;5042958;28;20290;-70
2022/10/29 09:57:30;;;;;;;15.77;5.63;;;21.50;99.90;;;;;;5048528;28;20206;-71
2022/10/29 10:00:01;;;;;;;11.32;6.10;;;21.40;99.90;;;;;;5042516;28;20230;-71
2022/10/29 10:02:32;;;;;;;14.35;5.57;;;21.30;99.90;;;;;;5062043;28;20218;-71
2022/10/29 10:05:05;;;;;;;12.23;6.03;;;21.20;99.90;;;;;;5057946;28;20183;-70
2022/10/29 10:07:31;;;;;;;11.90;5.80;;;21.10;99.90;;;;;;5064487;28;20627;-71
2022/10/29 10:09:58;;;;;;;11.77;5.45;;;20.90;99.90;;;;;;5057082;28;20242;-71
2022/10/29 10:12:36;;;;;;;12.45;5.45;;;20.80;99.90;;;;;;5057442;28;20219;-71
2022/10/29 10:15:20;;;;;;;13.05;5.32;;;20.70;99.90;;;;;;5057857;28;20207;-71
2022/10/29 10:17:57;;;;;;;12.90;5.40;;;20.70;99.90;;;;;;5042101;28;20211;-71
2022/10/29 10:20:27;;;;;;;9.90;4.93;;;20.60;99.90;;;;;;5057199;28;20307;-70
2022/10/29 10:22:52;;;;;;;11.95;5.53;;;20.60;99.90;;;;;;5060050;28;20226;-70
2022/10/29 10:25:38;;;;;;;13.93;5.60;;;20.80;99.90;;;;;;5059482;28;20235;-70
2022/10/29 10:28:18;;;;;;;14.15;5.65;;;21.30;99.90;;;;;;5056860;28;20693;-70
2022/10/29 10:31:01;;;;;;;10.13;5.47;;;21.60;99.90;;;;;;5057412;28;20218;-70
2022/10/29 10:33:27;;;;;;;13.35;6.00;;;21.80;99.90;;;;;;5058966;28;20211;-70
2022/10/29 10:35:54;;;;;;;12.43;5.13;;;21.90;99.90;;;;;;5057684;28;20219;-69
2022/10/29 10:38:20;;;;;;;13.52;5.60;;;21.90;99.90;;;;;;5057419;28;20665;-70
2022/10/29 10:41:04;;;;;;;18.25;6.03;;;22.10;99.90;;;;;;5063700;28;20258;-71
2022/10/29 10:43:29;;;;;;;14.77;5.05;;;22.00;99.90;;;;;;5064332;28;20222;-71
2022/10/29 10:46:02;;;;;;;12.43;5.53;;;21.90;99.90;;;;;;5060897;28;20694;-70
2022/10/29 10:48:28;;;;;;;14.50;5.80;;;22.10;99.90;;;;;;5063161;28;20211;-70
2022/10/29 10:51:31;;;;;;;12.85;5.78;;;22.10;99.90;;;;;;5061760;28;20698;-70
2022/10/29 10:54:03;;;;;;;12.18;5.38;;;22.10;99.90;;;;;;5057001;28;20827;-70
2022/10/29 10:56:29;;;;;;;12.98;5.65;;;22.10;99.90;;;;;;5062588;28;20277;-71
2022/10/29 10:59:06;;;;;;;12.32;5.72;;;22.00;99.90;;;;;;5062424;28;20195;-70
2022/10/29 11:01:43;;;;;;;12.35;5.80;;;22.10;99.90;;;;;;5062877;28;20571;-71
2022/10/29 11:04:26;;;;;;;11.60;5.40;;;21.90;99.90;;;;;;5045938;28;20302;-70
2022/10/29 11:06:57;;;;;;;16.83;5.82;;;21.90;99.90;;;;;;5059232;28;20207;-70
2022/10/29 11:09:37;;;;;;;16.83;6.43;;;21.60;99.90;;;;;;5062455;28;20214;-70
2022/10/29 11:12:10;;;;;;;11.38;5.53;;;21.60;99.90;;;;;;5057847;28;20594;-70
2022/10/29 11:14:50;;;;;;;15.32;6.07;;;21.50;99.90;;;;;;5046522;28;20250;-70
2022/10/29 11:17:57;;;;;;;10.70;4.88;;;21.40;99.90;;;;;;5030837;28;20171;-70
2022/10/29 11:20:24;;;;;;;15.50;5.53;;;21.60;99.90;;;;;;4979004;28;20221;-71
2022/10/29 11:23:05;;;;;;;15.23;5.63;;;21.50;99.90;;;;;;5050263;28;20218;-71
2022/10/29 11:25:49;;;;;;;13.68;5.53;;;21.60;99.90;;;;;;5063461;28;20238;-71
2022/10/29 11:28:32;;;;;;;12.40;5.55;;;21.70;99.90;;;;;;5062615;28;20199;-71
2022/10/29 11:31:09;;;;;;;15.52;6.10;;;21.60;99.90;;;;;;5057724;28;20877;-70
2022/10/29 11:33:51;;;;;;;10.95;5.40;;;21.40;99.90;;;;;;5063618;28;20206;-70
2022/10/29 11:36:20;;;;;;;17.13;6.32;;;21.40;99.90;;;;;;5062897;28;20199;-70
2022/10/29 11:38:57;;;;;;;15.20;5.38;;;21.50;99.90;;;;;;5048462;28;20297;-71
2022/10/29 11:41:48;;;;;;;14.32;6.10;;;21.40;99.90;;;;;;5061682;28;20597;-70
2022/10/29 11:44:16;;;;;;;15.52;5.63;;;21.60;99.90;;;;;;5045460;28;20249;-70
2022/10/29 11:47:06;;;;;;;12.80;5.63;;;21.60;99.90;;;;;;5060923;28;20191;-71
2022/10/29 11:50:09;;;;;;;13.23;5.88;;;21.50;99.90;;;;;;5061738;28;20614;-71
2022/10/29 11:52:49;;;;;;;15.35;6.60;;;21.40;99.90;;;;;;5047345;28;20304;-71
2022/10/29 11:55:41;;;;;;;12.00;5.47;;;21.30;99.90;;;;;;5045537;28;20210;-70
2022/10/29 11:58:15;;;;;;;18.77;6.65;;;21.10;99.90;;;;;;5033158;28;20257;-71
2022/10/29 12:00:55;;;;;;;11.88;6.28;;;21.30;99.90;;;;;;5045784;28;20702;-71
2022/10/29 12:03:31;;;;;;;14.68;5.93;;;21.30;99.90;;;;;;5055707;28;20217;-70
2022/10/29 12:06:24;;;;;;;12.45;6.07;;;21.40;99.90;;;;;;5061787;28;20218;-71
2022/10/29 12:09:04;;;;;;;16.20;6.85;;;21.50;99.90;;;;;;5064219;28;20207;-71
2022/10/29 12:11:53;;;;;;;19.90;6.80;;;21.60;99.90;;;;;;5042783;28;20272;-70
2022/10/29 12:14:49;;;;;;;14.68;6.35;;;21.60;99.90;;;;;;5048796;28;20182;-72
2022/10/29 12:17:19;;;;;;;16.00;6.82;;;21.70;99.90;;;;;;5060930;28;20180;-70
2022/10/29 12:20:18;;;;;;;12.32;6.22;;;21.60;99.90;;;;;;5060560;28;20214;-71
2022/10/29 12:22:54;;;;;;;11.55;5.75;;;21.70;99.90;;;;;;5047616;28;20214;-71
2022/10/29 12:25:25;;;;;;;13.40;6.00;;;21.60;99.90;;;;;;5063850;28;20214;-70
2022/10/29 12:28:20;;;;;;;15.55;5.47;;;21.50;99.90;;;;;;5063239;28;20218;-70
2022/10/29 12:31:02;;;;;;;15.90;6.32;;;21.80;99.90;;;;;;5051041;28;20307;-70
2022/10/29 12:33:46;;;;;;;13.35;6.22;;;21.90;99.90;;;;;;5060761;28;20215;-71
2022/10/29 12:36:22;;;;;;;14.68;6.35;;;21.80;99.90;;;;;;5060262;28;20261;-71
2022/10/29 12:38:54;;;;;;;16.42;6.15;;;21.90;99.90;;;;;;5055734;28;20293;-70
2022/10/29 12:41:35;;;;;;;17.30;5.97;;;21.90;99.90;;;;;;5045904;28;20277;-71
2022/10/29 12:44:25;;;;;;;11.85;5.75;;;21.80;99.90;;;;;;5056804;28;20302;-70
2022/10/29 12:47:16;;;;;;;12.85;5.93;;;21.70;99.90;;;;;;5050535;28;20293;-72
2022/10/29 12:50:02;;;;;;;11.95;6.70;;;21.70;99.90;;;;;;5003699;28;20211;-71
2022/10/29 12:52:41;;;;;;;12.23;6.90;;;21.70;99.90;;;;;;5061926;28;20307;-71
2022/10/29 12:55:10;;;;;;;14.73;6.00;;;21.60;99.90;;;;;;5057781;28;20576;-70
2022/10/29 12:57:36;;;;;;;14.98;6.38;;;21.60;99.90;;;;;;5061575;28;20206;-71
2022/10/29 13:00:31;;;;;;;14.02;6.35;;;21.50;99.90;;;;;;5057400;28;20223;-71
2022/10/29 13:02:57;;;;;;;16.48;6.18;;;21.50;99.90;;;;;;5055518;28;20698;-71